sensor_id;sensor_type;location;lat;lon;timestamp;pressure;altitude;pressure_sealevel;temperature;humidity
9905;BME280;4991;43.566;27.820;2023-02-11T00:01:39;100708.19;;;-6.26;100.00
9905;BME280;4991;43.566;27.820;2023-02-11T00:04:06;100711.78;;;-6.17;100.00
9905;BME280;4991;43.566;27.820;2023-02-11T00:06:33;100712.75;;;-6.18;100.00
9905;BME280;4991;43.566;27.820;2023-02-11T00:08:59;100712.09;;;-6.20;100.00
9905;BME280;4991;43.566;27.820;2023-02-11T00:11:26;100710.41;;;-6.21;100.00
9905;BME280;4991;43.566;27.820;2023-02-11T00:13:56;100714.72;;;-6.20;100.00
9905;BME280;4991;43.566;27.820;2023-02-11T00:16:22;100714.03;;;-6.22;100.00
9905;BME280;4991;43.566;27.820;2023-02-11T00:18:48;100710.56;;;-6.23;100.00
9905;BME280;4991;43.566;27.820;2023-02-11T00:21:17;100708.81;;;-6.32;100.00
9905;BME280;4991;43.566;27.820;2023-02-11T00:23:43;100710.47;;;-6.31;100.00
9905;BME280;4991;43.566;27.820;2023-02-11T00:26:18;100695.03;;;-6.35;100.00
9905;BME280;4991;43.566;27.820;2023-02-11T00:28:45;100699.00;;;-6.49;100.00
9905;BME280;4991;43.566;27.820;2023-02-11T00:31:12;100694.31;;;-6.55;100.00
9905;BME280;4991;43.566;27.820;2023-02-11T00:33:38;100691.16;;;-6.68;100.00
9905;BME280;4991;43.566;27.820;2023-02-11T00:36:05;100685.47;;;-6.73;100.00
9905;BME280;4991;43.566;27.820;2023-02-11T00:38:32;100680.72;;;-6.70;100.00
9905;BME280;4991;43.566;27.820;2023-02-11T00:40:58;100686.63;;;-6.76;100.00
9905;BME280;4991;43.566;27.820;2023-02-11T00:43:23;100682.69;;;-6.72;100.00
9905;BME280;4991;43.566;27.820;2023-02-11T00:45:49;100679.50;;;-6.75;100.00
9905;BME280;4991;43.566;27.820;2023-02-11T00:48:15;100685.03;;;-6.69;100.00
9905;BME280;4991;43.566;27.820;2023-02-11T00:50:40;100678.91;;;-6.69;100.00
9905;BME280;4991;43.566;27.820;2023-02-11T00:53:06;100678.44;;;-6.65;100.00
9905;BME280;4991;43.566;27.820;2023-02-11T00:55:32;100677.56;;;-6.55;100.00
9905;BME280;4991;43.566;27.820;2023-02-11T00:58:00;100683.34;;;-6.60;100.00
9905;BME280;4991;43.566;27.820;2023-02-11T01:00:27;100673.47;;;-6.68;100.00
9905;BME280;4991;43.566;27.820;2023-02-11T01:02:53;100674.78;;;-6.81;100.00
9905;BME280;4991;43.566;27.820;2023-02-11T01:05:19;100661.84;;;-6.84;100.00
9905;BME280;4991;43.566;27.820;2023-02-11T01:07:45;100674.53;;;-6.88;100.00
9905;BME280;4991;43.566;27.820;2023-02-11T01:10:11;100673.59;;;-6.96;100.00
9905;BME280;4991;43.566;27.820;2023-02-11T01:12:38;100676.16;;;-7.04;100.00
9905;BME280;4991;43.566;27.820;2023-02-11T01:15:06;100673.94;;;-7.09;100.00
9905;BME280;4991;43.566;27.820;2023-02-11T01:17:33;100678.66;;;-7.03;100.00
9905;BME280;4991;43.566;27.820;2023-02-11T01:20:04;100677.84;;;-7.03;100.00
9905;BME280;4991;43.566;27.820;2023-02-11T01:22:31;100678.09;;;-6.97;100.00
9905;BME280;4991;43.566;27.820;2023-02-11T01:24:59;100670.13;;;-6.97;100.00
9905;BME280;4991;43.566;27.820;2023-02-11T01:27:25;100667.50;;;-6.97;100.00
9905;BME280;4991;43.566;27.820;2023-02-11T01:29:51;100656.44;;;-6.92;100.00
9905;BME280;4991;43.566;27.820;2023-02-11T01:32:17;100658.94;;;-6.91;100.00
9905;BME280;4991;43.566;27.820;2023-02-11T01:34:42;100660.47;;;-6.88;100.00
9905;BME280;4991;43.566;27.820;2023-02-11T01:37:08;100665.50;;;-6.95;100.00
9905;BME280;4991;43.566;27.820;2023-02-11T01:39:34;100662.59;;;-6.92;100.00
9905;BME280;4991;43.566;27.820;2023-02-11T01:42:00;100664.94;;;-6.89;100.00
9905;BME280;4991;43.566;27.820;2023-02-11T01:44:35;100652.94;;;-6.83;100.00
9905;BME280;4991;43.566;27.820;2023-02-11T01:47:02;100658.88;;;-6.81;100.00
9905;BME280;4991;43.566;27.820;2023-02-11T01:49:41;100659.72;;;-6.81;100.00
9905;BME280;4991;43.566;27.820;2023-02-11T01:52:20;100649.00;;;-6.79;100.00
9905;BME280;4991;43.566;27.820;2023-02-11T01:54:54;100651.09;;;-6.83;100.00
9905;BME280;4991;43.566;27.820;2023-02-11T01:57:42;100654.44;;;-6.81;100.00
9905;BME280;4991;43.566;27.820;2023-02-11T02:02:41;100649.91;;;-6.71;100.00
9905;BME280;4991;43.566;27.820;2023-02-11T02:10:16;100656.28;;;-6.63;100.00
9905;BME280;4991;43.566;27.820;2023-02-11T02:12:43;100647.19;;;-6.61;100.00
9905;BME280;4991;43.566;27.820;2023-02-11T02:17:56;100648.34;;;-6.63;100.00
9905;BME280;4991;43.566;27.820;2023-02-11T02:32:09;100654.34;;;-6.44;100.00
9905;BME280;4991;43.566;27.820;2023-02-11T02:37:39;100665.72;;;-6.34;100.00
9905;BME280;4991;43.566;27.820;2023-02-11T02:40:17;100654.44;;;-6.36;100.00
9905;BME280;4991;43.566;27.820;2023-02-11T02:42:45;100657.22;;;-6.37;100.00
9905;BME280;4991;43.566;27.820;2023-02-11T02:45:12;100660.72;;;-6.37;100.00
9905;BME280;4991;43.566;27.820;2023-02-11T02:47:38;100650.16;;;-6.46;100.00
9905;BME280;4991;43.566;27.820;2023-02-11T02:50:05;100657.53;;;-6.40;100.00
9905;BME280;4991;43.566;27.820;2023-02-11T03:06:45;100651.63;;;-6.52;100.00
9905;BME280;4991;43.566;27.820;2023-02-11T03:09:15;100644.34;;;-6.50;100.00
9905;BME280;4991;43.566;27.820;2023-02-11T03:11:44;100653.13;;;-6.49;100.00
9905;BME280;4991;43.566;27.820;2023-02-11T03:14:12;100645.00;;;-6.48;100.00
9905;BME280;4991;43.566;27.820;2023-02-11T03:16:41;100648.66;;;-6.49;100.00
9905;BME280;4991;43.566;27.820;2023-02-11T03:21:39;100646.31;;;-6.52;100.00
9905;BME280;4991;43.566;27.820;2023-02-11T03:24:11;100643.81;;;-6.53;100.00
9905;BME280;4991;43.566;27.820;2023-02-11T03:26:50;100633.22;;;-6.53;100.00
9905;BME280;4991;43.566;27.820;2023-02-11T03:29:36;100641.84;;;-6.51;100.00
9905;BME280;4991;43.566;27.820;2023-02-11T03:32:11;100636.84;;;-6.54;100.00
9905;BME280;4991;43.566;27.820;2023-02-11T03:34:46;100634.78;;;-6.60;100.00
9905;BME280;4991;43.566;27.820;2023-02-11T03:37:19;100629.56;;;-6.52;100.00
9905;BME280;4991;43.566;27.820;2023-02-11T03:40:00;100638.78;;;-6.56;100.00
9905;BME280;4991;43.566;27.820;2023-02-11T03:42:31;100631.69;;;-6.56;100.00
9905;BME280;4991;43.566;27.820;2023-02-11T03:45:04;100623.59;;;-6.54;100.00
9905;BME280;4991;43.566;27.820;2023-02-11T03:47:31;100629.28;;;-6.49;100.00
9905;BME280;4991;43.566;27.820;2023-02-11T03:50:02;100628.06;;;-6.55;100.00
9905;BME280;4991;43.566;27.820;2023-02-11T03:52:29;100622.78;;;-6.55;100.00
9905;BME280;4991;43.566;27.820;2023-02-11T03:54:57;100627.22;;;-6.55;100.00
9905;BME280;4991;43.566;27.820;2023-02-11T03:57:24;100618.81;;;-6.51;100.00
9905;BME280;4991;43.566;27.820;2023-02-11T03:59:57;100624.88;;;-6.58;100.00
9905;BME280;4991;43.566;27.820;2023-02-11T04:02:29;100625.03;;;-6.60;100.00
9905;BME280;4991;43.566;27.820;2023-02-11T04:04:55;100613.44;;;-6.59;100.00
9905;BME280;4991;43.566;27.820;2023-02-11T04:07:21;100617.75;;;-6.58;100.00
9905;BME280;4991;43.566;27.820;2023-02-11T04:09:47;100618.97;;;-6.52;100.00
9905;BME280;4991;43.566;27.820;2023-02-11T04:12:12;100619.13;;;-6.54;100.00
9905;BME280;4991;43.566;27.820;2023-02-11T04:14:38;100614.91;;;-6.47;100.00
9905;BME280;4991;43.566;27.820;2023-02-11T04:17:04;100612.47;;;-6.40;100.00
9905;BME280;4991;43.566;27.820;2023-02-11T04:19:30;100608.81;;;-6.39;100.00
9905;BME280;4991;43.566;27.820;2023-02-11T04:21:56;100611.78;;;-6.42;100.00
9905;BME280;4991;43.566;27.820;2023-02-11T04:24:22;100606.50;;;-6.42;100.00
9905;BME280;4991;43.566;27.820;2023-02-11T04:26:47;100612.84;;;-6.35;100.00
9905;BME280;4991;43.566;27.820;2023-02-11T04:29:13;100611.31;;;-6.38;100.00
9905;BME280;4991;43.566;27.820;2023-02-11T04:31:39;100614.97;;;-6.39;100.00
9905;BME280;4991;43.566;27.820;2023-02-11T04:34:04;100611.78;;;-6.42;100.00
9905;BME280;4991;43.566;27.820;2023-02-11T04:36:30;100608.22;;;-6.51;100.00
9905;BME280;4991;43.566;27.820;2023-02-11T04:38:55;100612.41;;;-6.48;100.00
9905;BME280;4991;43.566;27.820;2023-02-11T04:41:21;100609.22;;;-6.52;100.00
9905;BME280;4991;43.566;27.820;2023-02-11T04:43:47;100607.69;;;-6.54;100.00
9905;BME280;4991;43.566;27.820;2023-02-11T04:46:12;100603.38;;;-6.55;100.00
9905;BME280;4991;43.566;27.820;2023-02-11T04:48:38;100606.72;;;-6.53;100.00
9905;BME280;4991;43.566;27.820;2023-02-11T04:51:04;100602.22;;;-6.53;100.00
9905;BME280;4991;43.566;27.820;2023-02-11T04:53:29;100598.78;;;-6.53;100.00
9905;BME280;4991;43.566;27.820;2023-02-11T04:55:55;100602.78;;;-6.49;100.00
9905;BME280;4991;43.566;27.820;2023-02-11T04:58:20;100605.88;;;-6.54;100.00
9905;BME280;4991;43.566;27.820;2023-02-11T05:00:46;100605.34;;;-6.57;100.00
9905;BME280;4991;43.566;27.820;2023-02-11T05:03:12;100604.50;;;-6.58;100.00
9905;BME280;4991;43.566;27.820;2023-02-11T05:05:39;100606.34;;;-6.58;100.00
9905;BME280;4991;43.566;27.820;2023-02-11T05:08:05;100595.13;;;-6.52;100.00
9905;BME280;4991;43.566;27.820;2023-02-11T05:10:31;100596.41;;;-6.56;100.00
9905;BME280;4991;43.566;27.820;2023-02-11T05:12:56;100602.22;;;-6.53;100.00
9905;BME280;4991;43.566;27.820;2023-02-11T05:15:22;100598.78;;;-6.53;100.00
9905;BME280;4991;43.566;27.820;2023-02-11T05:17:48;100603.31;;;-6.46;100.00
9905;BME280;4991;43.566;27.820;2023-02-11T05:20:13;100596.66;;;-6.50;100.00
9905;BME280;4991;43.566;27.820;2023-02-11T05:22:39;100601.50;;;-6.45;100.00
9905;BME280;4991;43.566;27.820;2023-02-11T05:25:05;100595.34;;;-6.46;100.00
9905;BME280;4991;43.566;27.820;2023-02-11T05:27:31;100582.78;;;-6.44;100.00
9905;BME280;4991;43.566;27.820;2023-02-11T05:29:56;100596.72;;;-6.42;100.00
9905;BME280;4991;43.566;27.820;2023-02-11T05:32:22;100599.22;;;-6.40;100.00
9905;BME280;4991;43.566;27.820;2023-02-11T05:34:47;100595.97;;;-6.34;100.00
9905;BME280;4991;43.566;27.820;2023-02-11T05:37:13;100586.19;;;-6.34;100.00
9905;BME280;4991;43.566;27.820;2023-02-11T05:39:39;100590.34;;;-6.31;100.00
9905;BME280;4991;43.566;27.820;2023-02-11T05:42:05;100594.53;;;-6.29;100.00
9905;BME280;4991;43.566;27.820;2023-02-11T05:44:30;100586.56;;;-6.29;100.00
9905;BME280;4991;43.566;27.820;2023-02-11T05:46:56;100596.72;;;-6.24;100.00
9905;BME280;4991;43.566;27.820;2023-02-11T05:49:21;100593.06;;;-6.23;100.00
9905;BME280;4991;43.566;27.820;2023-02-11T05:51:47;100596.25;;;-6.20;100.00
9905;BME280;4991;43.566;27.820;2023-02-11T05:54:12;100590.94;;;-6.20;100.00
9905;BME280;4991;43.566;27.820;2023-02-11T05:56:38;100599.22;;;-6.23;100.00
9905;BME280;4991;43.566;27.820;2023-02-11T05:59:05;100603.91;;;-6.17;100.00
9905;BME280;4991;43.566;27.820;2023-02-11T06:01:31;100602.81;;;-6.06;100.00
9905;BME280;4991;43.566;27.820;2023-02-11T06:03:56;100611.31;;;-6.03;100.00
9905;BME280;4991;43.566;27.820;2023-02-11T06:06:22;100602.22;;;-6.00;100.00
9905;BME280;4991;43.566;27.820;2023-02-11T06:08:48;100605.91;;;-5.93;100.00
9905;BME280;4991;43.566;27.820;2023-02-11T06:11:15;100601.44;;;-5.93;100.00
9905;BME280;4991;43.566;27.820;2023-02-11T06:13:40;100610.56;;;-5.95;100.00
9905;BME280;4991;43.566;27.820;2023-02-11T06:16:06;100607.44;;;-5.91;100.00
9905;BME280;4991;43.566;27.820;2023-02-11T06:18:31;100605.31;;;-5.87;100.00
9905;BME280;4991;43.566;27.820;2023-02-11T06:20:58;100606.66;;;-5.83;100.00
9905;BME280;4991;43.566;27.820;2023-02-11T06:23:24;100598.00;;;-5.85;100.00
9905;BME280;4991;43.566;27.820;2023-02-11T06:25:51;100607.97;;;-5.79;100.00
9905;BME280;4991;43.566;27.820;2023-02-11T06:28:18;100605.00;;;-5.84;100.00
9905;BME280;4991;43.566;27.820;2023-02-11T06:30:43;100605.84;;;-5.84;100.00
9905;BME280;4991;43.566;27.820;2023-02-11T06:33:09;100615.78;;;-5.78;100.00
9905;BME280;4991;43.566;27.820;2023-02-11T06:35:37;100625.72;;;-5.80;100.00
9905;BME280;4991;43.566;27.820;2023-02-11T06:38:03;100614.50;;;-5.74;100.00
9905;BME280;4991;43.566;27.820;2023-02-11T06:40:29;100602.69;;;-5.79;100.00
9905;BME280;4991;43.566;27.820;2023-02-11T06:42:54;100604.00;;;-5.75;100.00
9905;BME280;4991;43.566;27.820;2023-02-11T06:45:20;100596.41;;;-5.70;100.00
9905;BME280;4991;43.566;27.820;2023-02-11T06:47:46;100612.88;;;-5.67;100.00
9905;BME280;4991;43.566;27.820;2023-02-11T06:50:13;100611.38;;;-5.69;100.00
9905;BME280;4991;43.566;27.820;2023-02-11T06:52:39;100612.63;;;-5.56;100.00
9905;BME280;4991;43.566;27.820;2023-02-11T06:55:06;100615.28;;;-5.56;100.00
9905;BME280;4991;43.566;27.820;2023-02-11T06:57:31;100615.47;;;-5.49;100.00
9905;BME280;4991;43.566;27.820;2023-02-11T06:59:57;100616.50;;;-5.42;100.00
9905;BME280;4991;43.566;27.820;2023-02-11T07:02:24;100614.34;;;-5.39;100.00
9905;BME280;4991;43.566;27.820;2023-02-11T07:04:50;100607.41;;;-5.40;100.00
9905;BME280;4991;43.566;27.820;2023-02-11T07:07:15;100620.38;;;-5.29;100.00
9905;BME280;4991;43.566;27.820;2023-02-11T07:09:42;100624.25;;;-5.23;100.00
9905;BME280;4991;43.566;27.820;2023-02-11T07:12:10;100612.94;;;-5.25;100.00
9905;BME280;4991;43.566;27.820;2023-02-11T07:14:36;100610.28;;;-5.25;100.00
9905;BME280;4991;43.566;27.820;2023-02-11T07:17:02;100609.69;;;-5.11;100.00
9905;BME280;4991;43.566;27.820;2023-02-11T07:19:29;100609.53;;;-5.09;100.00
9905;BME280;4991;43.566;27.820;2023-02-11T07:21:54;100601.78;;;-4.95;100.00
9905;BME280;4991;43.566;27.820;2023-02-11T07:24:20;100607.28;;;-4.88;100.00
9905;BME280;4991;43.566;27.820;2023-02-11T07:26:46;100599.50;;;-4.82;100.00
9905;BME280;4991;43.566;27.820;2023-02-11T07:29:11;100603.97;;;-4.82;100.00
9905;BME280;4991;43.566;27.820;2023-02-11T07:31:37;100596.41;;;-4.69;100.00
9905;BME280;4991;43.566;27.820;2023-02-11T07:34:03;100593.59;;;-4.60;100.00
9905;BME280;4991;43.566;27.820;2023-02-11T07:36:29;100602.25;;;-4.42;100.00
9905;BME280;4991;43.566;27.820;2023-02-11T07:38:56;100597.94;;;-4.35;100.00
9905;BME280;4991;43.566;27.820;2023-02-11T07:41:23;100583.66;;;-4.18;100.00
9905;BME280;4991;43.566;27.820;2023-02-11T07:43:49;100596.47;;;-4.05;100.00
9905;BME280;4991;43.566;27.820;2023-02-11T07:46:21;100592.13;;;-4.06;100.00
9905;BME280;4991;43.566;27.820;2023-02-11T07:48:47;100590.13;;;-3.96;100.00
9905;BME280;4991;43.566;27.820;2023-02-11T07:53:39;100578.66;;;-3.80;100.00
9905;BME280;4991;43.566;27.820;2023-02-11T07:56:05;100589.63;;;-3.75;100.00
9905;BME280;4991;43.566;27.820;2023-02-11T07:58:32;100574.63;;;-3.60;100.00
9905;BME280;4991;43.566;27.820;2023-02-11T08:01:09;100572.94;;;-3.53;100.00
9905;BME280;4991;43.566;27.820;2023-02-11T08:03:35;100572.41;;;-3.41;100.00
9905;BME280;4991;43.566;27.820;2023-02-11T08:06:10;100573.25;;;-3.40;100.00
9905;BME280;4991;43.566;27.820;2023-02-11T08:08:36;100574.56;;;-3.44;100.00
9905;BME280;4991;43.566;27.820;2023-02-11T08:11:11;100568.78;;;-3.56;100.00
9905;BME280;4991;43.566;27.820;2023-02-11T08:13:38;100580.75;;;-3.52;100.00
9905;BME280;4991;43.566;27.820;2023-02-11T08:16:04;100563.41;;;-3.40;100.00
9905;BME280;4991;43.566;27.820;2023-02-11T08:18:31;100559.53;;;-3.29;100.00
9905;BME280;4991;43.566;27.820;2023-02-11T08:21:05;100567.81;;;-3.16;100.00
9905;BME280;4991;43.566;27.820;2023-02-11T08:23:31;100562.44;;;-3.00;100.00
9905;BME280;4991;43.566;27.820;2023-02-11T08:26:04;100557.56;;;-2.97;100.00
9905;BME280;4991;43.566;27.820;2023-02-11T08:28:30;100555.56;;;-2.95;100.00
9905;BME280;4991;43.566;27.820;2023-02-11T08:30:56;100564.16;;;-2.85;100.00
9905;BME280;4991;43.566;27.820;2023-02-11T08:33:22;100555.94;;;-2.75;100.00
9905;BME280;4991;43.566;27.820;2023-02-11T08:35:48;100552.78;;;-2.71;100.00
9905;BME280;4991;43.566;27.820;2023-02-11T08:38:13;100553.59;;;-2.70;100.00
9905;BME280;4991;43.566;27.820;2023-02-11T08:40:39;100545.81;;;-2.80;100.00
9905;BME280;4991;43.566;27.820;2023-02-11T08:43:04;100558.16;;;-2.79;100.00
9905;BME280;4991;43.566;27.820;2023-02-11T08:45:30;100543.09;;;-2.72;100.00
9905;BME280;4991;43.566;27.820;2023-02-11T08:47:56;100549.03;;;-2.62;100.00
9905;BME280;4991;43.566;27.820;2023-02-11T08:50:22;100539.31;;;-2.54;100.00
9905;BME280;4991;43.566;27.820;2023-02-11T08:52:47;100541.81;;;-2.53;100.00
9905;BME280;4991;43.566;27.820;2023-02-11T08:55:13;100535.19;;;-2.57;100.00
9905;BME280;4991;43.566;27.820;2023-02-11T08:57:38;100534.41;;;-2.43;100.00
9905;BME280;4991;43.566;27.820;2023-02-11T09:00:06;100530.31;;;-2.31;100.00
9905;BME280;4991;43.566;27.820;2023-02-11T09:02:31;100529.88;;;-2.20;100.00
9905;BME280;4991;43.566;27.820;2023-02-11T09:04:57;100523.78;;;-2.06;100.00
9905;BME280;4991;43.566;27.820;2023-02-11T09:07:23;100535.13;;;-1.89;100.00
9905;BME280;4991;43.566;27.820;2023-02-11T09:09:48;100525.63;;;-1.77;100.00
9905;BME280;4991;43.566;27.820;2023-02-11T09:12:14;100526.66;;;-1.78;100.00
9905;BME280;4991;43.566;27.820;2023-02-11T09:14:40;100532.19;;;-1.65;100.00
9905;BME280;4991;43.566;27.820;2023-02-11T09:17:06;100533.13;;;-1.44;100.00
9905;BME280;4991;43.566;27.820;2023-02-11T09:19:31;100520.50;;;-1.20;100.00
9905;BME280;4991;43.566;27.820;2023-02-11T09:21:58;100523.25;;;-1.14;100.00
9905;BME280;4991;43.566;27.820;2023-02-11T09:24:23;100519.53;;;-0.98;100.00
9905;BME280;4991;43.566;27.820;2023-02-11T09:26:49;100504.38;;;-0.77;100.00
9905;BME280;4991;43.566;27.820;2023-02-11T09:29:14;100507.88;;;-0.34;100.00
9905;BME280;4991;43.566;27.820;2023-02-11T09:31:40;100509.78;;;-0.07;100.00
9905;BME280;4991;43.566;27.820;2023-02-11T09:34:06;100499.09;;;0.27;100.00
9905;BME280;4991;43.566;27.820;2023-02-11T09:36:36;100489.66;;;1.25;100.00
9905;BME280;4991;43.566;27.820;2023-02-11T09:39:05;100491.88;;;2.85;100.00
9905;BME280;4991;43.566;27.820;2023-02-11T09:44:24;100464.25;;;5.52;100.00
9905;BME280;4991;43.566;27.820;2023-02-11T09:47:00;100466.09;;;5.70;100.00
9905;BME280;4991;43.566;27.820;2023-02-11T09:49:48;100457.81;;;6.64;100.00
9905;BME280;4991;43.566;27.820;2023-02-11T09:54:57;100470.91;;;8.24;100.00
9905;BME280;4991;43.566;27.820;2023-02-11T09:57:31;100465.47;;;7.46;100.00
9905;BME280;4991;43.566;27.820;2023-02-11T09:59:58;100449.44;;;8.06;100.00
9905;BME280;4991;43.566;27.820;2023-02-11T10:02:31;100452.16;;;7.44;100.00
9905;BME280;4991;43.566;27.820;2023-02-11T10:07:59;100451.09;;;7.17;100.00
9905;BME280;4991;43.566;27.820;2023-02-11T10:10:51;100442.03;;;6.72;100.00
9905;BME280;4991;43.566;27.820;2023-02-11T10:16:17;100436.88;;;6.59;100.00
9905;BME280;4991;43.566;27.820;2023-02-11T10:21:31;100422.22;;;7.23;100.00
9905;BME280;4991;43.566;27.820;2023-02-11T10:24:03;100425.31;;;7.93;100.00
9905;BME280;4991;43.566;27.820;2023-02-11T10:26:37;100416.28;;;8.37;99.38
9905;BME280;4991;43.566;27.820;2023-02-11T10:29:14;100413.66;;;8.85;99.21
9905;BME280;4991;43.566;27.820;2023-02-11T10:31:45;100408.75;;;8.82;90.48
9905;BME280;4991;43.566;27.820;2023-02-11T10:34:14;100411.00;;;8.68;91.94
9905;BME280;4991;43.566;27.820;2023-02-11T10:36:41;100409.84;;;8.43;91.47
9905;BME280;4991;43.566;27.820;2023-02-11T10:39:17;100400.53;;;9.25;89.53
9905;BME280;4991;43.566;27.820;2023-02-11T10:42:07;100406.72;;;9.21;84.61
9905;BME280;4991;43.566;27.820;2023-02-11T10:44:37;100395.56;;;8.95;80.75
9905;BME280;4991;43.566;27.820;2023-02-11T10:47:10;100382.69;;;8.64;84.10
9905;BME280;4991;43.566;27.820;2023-02-11T10:49:39;100382.25;;;9.47;82.24
9905;BME280;4991;43.566;27.820;2023-02-11T10:52:23;100375.28;;;9.30;79.72
9905;BME280;4991;43.566;27.820;2023-02-11T10:55:13;100371.69;;;8.97;82.06
9905;BME280;4991;43.566;27.820;2023-02-11T10:57:42;100368.66;;;9.79;81.99
9905;BME280;4991;43.566;27.820;2023-02-11T11:02:43;100365.09;;;8.67;87.50
9905;BME280;4991;43.566;27.820;2023-02-11T11:05:24;100361.41;;;8.35;92.21
9905;BME280;4991;43.566;27.820;2023-02-11T11:07:59;100352.63;;;8.11;93.14
9905;BME280;4991;43.566;27.820;2023-02-11T11:10:28;100363.50;;;7.45;92.31
9905;BME280;4991;43.566;27.820;2023-02-11T11:12:54;100354.22;;;7.24;96.51
9905;BME280;4991;43.566;27.820;2023-02-11T11:15:22;100345.81;;;7.09;98.54
9905;BME280;4991;43.566;27.820;2023-02-11T11:17:50;100353.03;;;6.76;100.00
9905;BME280;4991;43.566;27.820;2023-02-11T11:20:27;100349.09;;;6.55;100.00
9905;BME280;4991;43.566;27.820;2023-02-11T11:25:37;100345.09;;;7.14;95.44
9905;BME280;4991;43.566;27.820;2023-02-11T11:28:04;100350.31;;;6.76;95.24
9905;BME280;4991;43.566;27.820;2023-02-11T11:30:40;100338.84;;;7.30;93.60
9905;BME280;4991;43.566;27.820;2023-02-11T11:33:29;100329.09;;;7.45;90.62
9905;BME280;4991;43.566;27.820;2023-02-11T11:36:10;100320.63;;;8.13;88.69
9905;BME280;4991;43.566;27.820;2023-02-11T11:38:43;100314.75;;;8.00;86.07
9905;BME280;4991;43.566;27.820;2023-02-11T11:41:23;100307.31;;;8.28;83.54
9905;BME280;4991;43.566;27.820;2023-02-11T11:43:57;100307.72;;;8.85;79.98
9905;BME280;4991;43.566;27.820;2023-02-11T11:46:30;100297.75;;;8.95;79.19
9905;BME280;4991;43.566;27.820;2023-02-11T11:49:02;100290.75;;;9.31;78.89
9905;BME280;4991;43.566;27.820;2023-02-11T11:51:30;100296.41;;;9.98;72.19
9905;BME280;4991;43.566;27.820;2023-02-11T11:54:00;100291.25;;;8.70;69.50
9905;BME280;4991;43.566;27.820;2023-02-11T11:56:37;100275.72;;;8.92;71.01
9905;BME280;4991;43.566;27.820;2023-02-11T11:59:10;100282.41;;;9.43;69.73
9905;BME280;4991;43.566;27.820;2023-02-11T12:02:01;100282.72;;;8.61;69.62
9905;BME280;4991;43.566;27.820;2023-02-11T12:07:43;100278.16;;;10.45;65.46
9905;BME280;4991;43.566;27.820;2023-02-11T12:10:22;100278.59;;;9.80;61.58
9905;BME280;4991;43.566;27.820;2023-02-11T12:16:14;100263.94;;;9.45;66.67
9905;BME280;4991;43.566;27.820;2023-02-11T12:19:19;100262.44;;;8.95;66.50
9905;BME280;4991;43.566;27.820;2023-02-11T12:22:10;100256.06;;;9.43;65.27
9905;BME280;4991;43.566;27.820;2023-02-11T12:33:09;100258.59;;;9.55;63.83
9905;BME280;4991;43.566;27.820;2023-02-11T12:38:42;100244.97;;;10.73;59.76
9905;BME280;4991;43.566;27.820;2023-02-11T12:41:29;100241.75;;;10.91;58.64
9905;BME280;4991;43.566;27.820;2023-02-11T12:47:27;100232.75;;;11.26;61.02
9905;BME280;4991;43.566;27.820;2023-02-11T12:53:01;100231.13;;;11.30;59.42
9905;BME280;4991;43.566;27.820;2023-02-11T12:55:24;100218.81;;;11.67;59.32
9905;BME280;4991;43.566;27.820;2023-02-11T12:57:53;100222.44;;;12.32;57.91
9905;BME280;4991;43.566;27.820;2023-02-11T13:00:30;100213.91;;;11.75;57.71
9905;BME280;4991;43.566;27.820;2023-02-11T13:03:11;100209.56;;;11.74;56.78
9905;BME280;4991;43.566;27.820;2023-02-11T13:05:53;100212.31;;;11.63;56.09
9905;BME280;4991;43.566;27.820;2023-02-11T13:11:01;100213.66;;;11.41;55.83
9905;BME280;4991;43.566;27.820;2023-02-11T13:13:56;100206.38;;;12.25;56.53
9905;BME280;4991;43.566;27.820;2023-02-11T13:16:32;100210.09;;;12.44;54.57
9905;BME280;4991;43.566;27.820;2023-02-11T13:24:42;100212.31;;;10.88;54.60
9905;BME280;4991;43.566;27.820;2023-02-11T13:30:24;100204.34;;;10.57;55.80
9905;BME280;4991;43.566;27.820;2023-02-11T13:36:09;100189.59;;;10.32;58.05
9905;BME280;4991;43.566;27.820;2023-02-11T13:38:34;100185.53;;;10.45;57.86
9905;BME280;4991;43.566;27.820;2023-02-11T13:43:31;100191.84;;;11.31;54.71
9905;BME280;4991;43.566;27.820;2023-02-11T13:46:04;100197.56;;;10.64;53.58
9905;BME280;4991;43.566;27.820;2023-02-11T13:48:36;100184.72;;;10.39;55.76
9905;BME280;4991;43.566;27.820;2023-02-11T13:51:09;100182.31;;;10.73;54.47
9905;BME280;4991;43.566;27.820;2023-02-11T13:53:55;100174.16;;;10.83;53.97
9905;BME280;4991;43.566;27.820;2023-02-11T13:56:28;100182.31;;;10.63;54.52
9905;BME280;4991;43.566;27.820;2023-02-11T13:58:56;100169.22;;;10.60;55.29
9905;BME280;4991;43.566;27.820;2023-02-11T14:04:32;100168.97;;;10.72;57.06
9905;BME280;4991;43.566;27.820;2023-02-11T14:07:29;100153.16;;;10.79;58.61
9905;BME280;4991;43.566;27.820;2023-02-11T14:13:18;100143.34;;;10.58;58.76
9905;BME280;4991;43.566;27.820;2023-02-11T14:15:46;100148.75;;;9.66;60.04
9905;BME280;4991;43.566;27.820;2023-02-11T14:18:35;100155.59;;;9.68;60.84
9905;BME280;4991;43.566;27.820;2023-02-11T14:23:50;100144.41;;;8.81;65.32
9905;BME280;4991;43.566;27.820;2023-02-11T14:29:01;100142.69;;;8.17;71.05
9905;BME280;4991;43.566;27.820;2023-02-11T14:31:44;100132.78;;;8.28;72.43
9905;BME280;4991;43.566;27.820;2023-02-11T14:37:25;100136.53;;;8.80;70.88
9905;BME280;4991;43.566;27.820;2023-02-11T14:40:17;100135.53;;;8.59;71.58
9905;BME280;4991;43.566;27.820;2023-02-11T14:42:47;100127.84;;;8.51;73.27
9905;BME280;4991;43.566;27.820;2023-02-11T14:45:20;100129.72;;;7.33;79.00
9905;BME280;4991;43.566;27.820;2023-02-11T14:48:19;100115.75;;;7.03;85.49
9905;BME280;4991;43.566;27.820;2023-02-11T14:50:51;100119.59;;;6.74;90.54
9905;BME280;4991;43.566;27.820;2023-02-11T14:53:21;100116.97;;;6.45;95.56
9905;BME280;4991;43.566;27.820;2023-02-11T14:55:50;100113.44;;;6.28;98.58
9905;BME280;4991;43.566;27.820;2023-02-11T14:58:25;100113.41;;;6.12;100.00
9905;BME280;4991;43.566;27.820;2023-02-11T15:01:05;100120.72;;;6.11;100.00
9905;BME280;4991;43.566;27.820;2023-02-11T15:03:47;100112.03;;;5.70;100.00
9905;BME280;4991;43.566;27.820;2023-02-11T15:06:20;100111.78;;;5.32;100.00
9905;BME280;4991;43.566;27.820;2023-02-11T15:11:55;100116.72;;;4.54;100.00